Terminal Aerodrome Forecast
Issued by NWS Mt. Holly, NJ

Home | Current Version | Previous Version | Text Only | Print | Product List | Glossary On
Versions: 1 2 3 4 5 6 7 8 9 10 11 12 13 14 15 16 17 18 19 20 21 22 23 24 25 26 27 28 29 30 31 32 33 34 35 36 37 38 39 40 41 42 43 44 45 46 47 48 49 50
172
FTUS41 KPHI 240654 AAA
TAFABE
TAF AMD
KABE 240654Z 2407/2506 VRB02KT 6SM BR OVC008
      TEMPO 2407/2411 4SM BR OVC005
     FM241300 25004KT P6SM BKN009
     FM241500 25006KT P6SM SCT020
     FM241700 25009G16KT P6SM BKN050 PROB30 2418/2424 5SM -TSRA
      BKN040CB
     FM250300 32006KT P6SM SCT250=

USA.gov is the U.S. government's official web portal to all federal, state and local government web resources and services.